sensor_id;sensor_type;location;lat;lon;timestamp;P1;durP1;ratioP1;P2;durP2;ratioP2
55684;SDS011;41883;49.544;8.646;2022-10-31T00:01:09;6.85;;;2.80;;
55684;SDS011;41883;49.544;8.646;2022-10-31T00:03:34;5.72;;;2.40;;
55684;SDS011;41883;49.544;8.646;2022-10-31T00:05:59;4.20;;;2.17;;
55684;SDS011;41883;49.544;8.646;2022-10-31T00:08:26;5.07;;;2.38;;
55684;SDS011;41883;49.544;8.646;2022-10-31T00:10:51;4.97;;;2.97;;
55684;SDS011;41883;49.544;8.646;2022-10-31T00:15:42;5.35;;;2.60;;
55684;SDS011;41883;49.544;8.646;2022-10-31T00:18:08;4.73;;;2.90;;
55684;SDS011;41883;49.544;8.646;2022-10-31T00:20:34;4.72;;;2.50;;
55684;SDS011;41883;49.544;8.646;2022-10-31T00:22:59;4.32;;;2.40;;
55684;SDS011;41883;49.544;8.646;2022-10-31T00:25:25;6.03;;;3.40;;
55684;SDS011;41883;49.544;8.646;2022-10-31T00:39:56;6.05;;;3.08;;
55684;SDS011;41883;49.544;8.646;2022-10-31T00:42:21;4.07;;;2.70;;
55684;SDS011;41883;49.544;8.646;2022-10-31T00:44:46;5.33;;;2.50;;
55684;SDS011;41883;49.544;8.646;2022-10-31T00:47:12;3.57;;;2.40;;
55684;SDS011;41883;49.544;8.646;2022-10-31T00:49:37;4.10;;;2.60;;
55684;SDS011;41883;49.544;8.646;2022-10-31T00:52:02;4.07;;;2.63;;
55684;SDS011;41883;49.544;8.646;2022-10-31T00:54:27;3.30;;;2.20;;
55684;SDS011;41883;49.544;8.646;2022-10-31T00:56:52;4.60;;;2.90;;
55684;SDS011;41883;49.544;8.646;2022-10-31T00:59:17;6.03;;;3.00;;
55684;SDS011;41883;49.544;8.646;2022-10-31T01:01:42;3.67;;;2.58;;
55684;SDS011;41883;49.544;8.646;2022-10-31T01:04:08;3.20;;;2.30;;
55684;SDS011;41883;49.544;8.646;2022-10-31T01:06:33;3.37;;;2.47;;
55684;SDS011;41883;49.544;8.646;2022-10-31T01:08:58;4.20;;;2.50;;
55684;SDS011;41883;49.544;8.646;2022-10-31T01:18:39;5.40;;;2.95;;
55684;SDS011;41883;49.544;8.646;2022-10-31T01:28:19;5.88;;;3.42;;
55684;SDS011;41883;49.544;8.646;2022-10-31T01:35:35;6.93;;;3.45;;
55684;SDS011;41883;49.544;8.646;2022-10-31T01:42:50;6.40;;;3.67;;
55684;SDS011;41883;49.544;8.646;2022-10-31T01:45:15;4.13;;;2.72;;
55684;SDS011;41883;49.544;8.646;2022-10-31T01:47:45;6.38;;;2.80;;
55684;SDS011;41883;49.544;8.646;2022-10-31T01:50:13;5.30;;;2.80;;
55684;SDS011;41883;49.544;8.646;2022-10-31T01:52:45;5.03;;;3.08;;
55684;SDS011;41883;49.544;8.646;2022-10-31T01:57:37;4.90;;;2.50;;
55684;SDS011;41883;49.544;8.646;2022-10-31T02:00:04;6.78;;;3.08;;
55684;SDS011;41883;49.544;8.646;2022-10-31T02:02:31;4.88;;;2.60;;
55684;SDS011;41883;49.544;8.646;2022-10-31T02:04:56;5.25;;;2.53;;
55684;SDS011;41883;49.544;8.646;2022-10-31T02:07:25;4.03;;;2.30;;
55684;SDS011;41883;49.544;8.646;2022-10-31T02:09:51;3.92;;;1.98;;
55684;SDS011;41883;49.544;8.646;2022-10-31T02:12:17;4.78;;;2.35;;
55684;SDS011;41883;49.544;8.646;2022-10-31T02:14:43;4.93;;;2.40;;
55684;SDS011;41883;49.544;8.646;2022-10-31T02:17:08;4.40;;;2.70;;
55684;SDS011;41883;49.544;8.646;2022-10-31T02:22:05;5.60;;;2.65;;
55684;SDS011;41883;49.544;8.646;2022-10-31T02:26:58;5.17;;;2.77;;
55684;SDS011;41883;49.544;8.646;2022-10-31T02:32:25;5.13;;;2.80;;
55684;SDS011;41883;49.544;8.646;2022-10-31T02:43:08;5.85;;;2.70;;
55684;SDS011;41883;49.544;8.646;2022-10-31T02:48:23;4.47;;;2.63;;
55684;SDS011;41883;49.544;8.646;2022-10-31T02:50:54;5.95;;;2.80;;
55684;SDS011;41883;49.544;8.646;2022-10-31T02:58:31;5.80;;;3.00;;
55684;SDS011;41883;49.544;8.646;2022-10-31T03:01:04;4.43;;;2.50;;
55684;SDS011;41883;49.544;8.646;2022-10-31T03:03:36;3.67;;;2.47;;
55684;SDS011;41883;49.544;8.646;2022-10-31T03:11:02;7.32;;;2.92;;
55684;SDS011;41883;49.544;8.646;2022-10-31T03:16:07;5.22;;;2.80;;
55684;SDS011;41883;49.544;8.646;2022-10-31T03:18:34;3.95;;;2.53;;
55684;SDS011;41883;49.544;8.646;2022-10-31T03:21:07;4.28;;;2.58;;
55684;SDS011;41883;49.544;8.646;2022-10-31T03:23:34;8.27;;;3.22;;
55684;SDS011;41883;49.544;8.646;2022-10-31T03:26:00;5.07;;;3.10;;
55684;SDS011;41883;49.544;8.646;2022-10-31T03:28:30;3.88;;;2.70;;
55684;SDS011;41883;49.544;8.646;2022-10-31T03:30:58;6.80;;;3.20;;
55684;SDS011;41883;49.544;8.646;2022-10-31T03:33:27;7.50;;;3.30;;
55684;SDS011;41883;49.544;8.646;2022-10-31T03:35:54;5.20;;;2.78;;
55684;SDS011;41883;49.544;8.646;2022-10-31T03:38:20;6.85;;;2.65;;
55684;SDS011;41883;49.544;8.646;2022-10-31T03:40:45;5.85;;;3.03;;
55684;SDS011;41883;49.544;8.646;2022-10-31T03:43:13;4.88;;;2.85;;
55684;SDS011;41883;49.544;8.646;2022-10-31T03:45:41;4.97;;;3.00;;
55684;SDS011;41883;49.544;8.646;2022-10-31T03:48:08;5.25;;;2.67;;
55684;SDS011;41883;49.544;8.646;2022-10-31T03:50:38;4.00;;;2.25;;
55684;SDS011;41883;49.544;8.646;2022-10-31T03:53:07;3.45;;;2.20;;
55684;SDS011;41883;49.544;8.646;2022-10-31T03:55:37;4.28;;;2.35;;
55684;SDS011;41883;49.544;8.646;2022-10-31T04:00:30;5.25;;;2.90;;
55684;SDS011;41883;49.544;8.646;2022-10-31T04:03:03;6.05;;;2.80;;
55684;SDS011;41883;49.544;8.646;2022-10-31T04:05:30;5.60;;;3.20;;
55684;SDS011;41883;49.544;8.646;2022-10-31T04:07:56;7.18;;;4.00;;
55684;SDS011;41883;49.544;8.646;2022-10-31T04:10:22;5.93;;;3.60;;
55684;SDS011;41883;49.544;8.646;2022-10-31T04:12:50;4.60;;;3.10;;
55684;SDS011;41883;49.544;8.646;2022-10-31T04:15:17;5.00;;;2.70;;
55684;SDS011;41883;49.544;8.646;2022-10-31T04:17:42;6.53;;;3.00;;
55684;SDS011;41883;49.544;8.646;2022-10-31T04:20:10;5.57;;;3.28;;
55684;SDS011;41883;49.544;8.646;2022-10-31T04:22:35;5.22;;;2.75;;
55684;SDS011;41883;49.544;8.646;2022-10-31T04:25:00;5.83;;;3.23;;
55684;SDS011;41883;49.544;8.646;2022-10-31T04:27:25;6.93;;;3.70;;
55684;SDS011;41883;49.544;8.646;2022-10-31T04:29:50;4.87;;;3.30;;
55684;SDS011;41883;49.544;8.646;2022-10-31T04:32:16;5.23;;;2.67;;
55684;SDS011;41883;49.544;8.646;2022-10-31T04:34:41;4.73;;;2.57;;
55684;SDS011;41883;49.544;8.646;2022-10-31T04:37:06;4.73;;;2.63;;
55684;SDS011;41883;49.544;8.646;2022-10-31T04:39:31;7.20;;;2.90;;
55684;SDS011;41883;49.544;8.646;2022-10-31T04:41:56;6.80;;;3.30;;
55684;SDS011;41883;49.544;8.646;2022-10-31T04:44:21;8.37;;;3.57;;
55684;SDS011;41883;49.544;8.646;2022-10-31T04:46:47;5.33;;;3.20;;
55684;SDS011;41883;49.544;8.646;2022-10-31T04:49:12;6.27;;;2.83;;
55684;SDS011;41883;49.544;8.646;2022-10-31T04:51:37;4.57;;;2.73;;
55684;SDS011;41883;49.544;8.646;2022-10-31T04:54:02;5.87;;;2.73;;
55684;SDS011;41883;49.544;8.646;2022-10-31T04:56:27;4.87;;;2.83;;
55684;SDS011;41883;49.544;8.646;2022-10-31T04:58:52;6.60;;;3.20;;
55684;SDS011;41883;49.544;8.646;2022-10-31T05:01:18;7.23;;;3.70;;
55684;SDS011;41883;49.544;8.646;2022-10-31T05:03:43;6.57;;;3.58;;
55684;SDS011;41883;49.544;8.646;2022-10-31T05:06:08;5.63;;;3.20;;
55684;SDS011;41883;49.544;8.646;2022-10-31T05:08:33;4.85;;;3.17;;
55684;SDS011;41883;49.544;8.646;2022-10-31T05:10:59;4.70;;;2.50;;
55684;SDS011;41883;49.544;8.646;2022-10-31T05:13:24;6.22;;;3.40;;
55684;SDS011;41883;49.544;8.646;2022-10-31T05:15:49;8.63;;;4.53;;
55684;SDS011;41883;49.544;8.646;2022-10-31T05:18:15;6.63;;;4.00;;
55684;SDS011;41883;49.544;8.646;2022-10-31T05:20:40;6.00;;;4.10;;
55684;SDS011;41883;49.544;8.646;2022-10-31T05:23:05;7.33;;;4.73;;
55684;SDS011;41883;49.544;8.646;2022-10-31T05:25:30;7.20;;;4.00;;
55684;SDS011;41883;49.544;8.646;2022-10-31T05:27:55;7.47;;;3.58;;
55684;SDS011;41883;49.544;8.646;2022-10-31T05:30:26;4.67;;;3.27;;
55684;SDS011;41883;49.544;8.646;2022-10-31T05:32:51;5.20;;;3.22;;
55684;SDS011;41883;49.544;8.646;2022-10-31T05:35:24;4.40;;;2.70;;
55684;SDS011;41883;49.544;8.646;2022-10-31T05:37:50;5.60;;;2.88;;
55684;SDS011;41883;49.544;8.646;2022-10-31T05:40:16;4.43;;;2.57;;
55684;SDS011;41883;49.544;8.646;2022-10-31T05:42:41;6.82;;;3.30;;
55684;SDS011;41883;49.544;8.646;2022-10-31T05:45:08;4.95;;;3.25;;
55684;SDS011;41883;49.544;8.646;2022-10-31T05:47:35;8.55;;;4.03;;
55684;SDS011;41883;49.544;8.646;2022-10-31T05:50:00;8.33;;;4.43;;
55684;SDS011;41883;49.544;8.646;2022-10-31T05:52:25;6.67;;;4.10;;
55684;SDS011;41883;49.544;8.646;2022-10-31T05:54:51;6.50;;;4.23;;
55684;SDS011;41883;49.544;8.646;2022-10-31T05:57:16;6.17;;;3.63;;
55684;SDS011;41883;49.544;8.646;2022-10-31T05:59:41;5.77;;;3.43;;
55684;SDS011;41883;49.544;8.646;2022-10-31T06:02:06;3.90;;;2.83;;
55684;SDS011;41883;49.544;8.646;2022-10-31T06:04:31;4.25;;;2.80;;
55684;SDS011;41883;49.544;8.646;2022-10-31T06:06:57;4.10;;;2.67;;
55684;SDS011;41883;49.544;8.646;2022-10-31T06:09:22;4.97;;;2.90;;
55684;SDS011;41883;49.544;8.646;2022-10-31T06:11:47;8.20;;;3.27;;
55684;SDS011;41883;49.544;8.646;2022-10-31T06:14:12;5.73;;;3.77;;
55684;SDS011;41883;49.544;8.646;2022-10-31T06:16:37;5.90;;;2.90;;
55684;SDS011;41883;49.544;8.646;2022-10-31T06:19:03;4.77;;;2.87;;
55684;SDS011;41883;49.544;8.646;2022-10-31T06:21:35;5.10;;;2.80;;
55684;SDS011;41883;49.544;8.646;2022-10-31T06:24:01;4.22;;;2.75;;
55684;SDS011;41883;49.544;8.646;2022-10-31T06:26:26;4.63;;;2.93;;
55684;SDS011;41883;49.544;8.646;2022-10-31T06:28:51;4.70;;;2.70;;
55684;SDS011;41883;49.544;8.646;2022-10-31T06:31:16;7.93;;;4.33;;
55684;SDS011;41883;49.544;8.646;2022-10-31T06:33:41;5.67;;;3.90;;
55684;SDS011;41883;49.544;8.646;2022-10-31T06:36:07;7.22;;;3.30;;
55684;SDS011;41883;49.544;8.646;2022-10-31T06:38:32;5.55;;;3.60;;
55684;SDS011;41883;49.544;8.646;2022-10-31T06:41:00;4.70;;;2.97;;
55684;SDS011;41883;49.544;8.646;2022-10-31T06:43:26;4.40;;;2.90;;
55684;SDS011;41883;49.544;8.646;2022-10-31T06:45:51;4.90;;;3.40;;
55684;SDS011;41883;49.544;8.646;2022-10-31T06:48:16;6.57;;;4.30;;
55684;SDS011;41883;49.544;8.646;2022-10-31T06:50:42;5.77;;;4.03;;
55684;SDS011;41883;49.544;8.646;2022-10-31T06:53:07;5.67;;;3.57;;
55684;SDS011;41883;49.544;8.646;2022-10-31T06:55:33;5.88;;;3.38;;
55684;SDS011;41883;49.544;8.646;2022-10-31T06:57:59;8.33;;;4.53;;
55684;SDS011;41883;49.544;8.646;2022-10-31T07:00:25;7.25;;;4.53;;
55684;SDS011;41883;49.544;8.646;2022-10-31T07:03:00;7.90;;;4.90;;
55684;SDS011;41883;49.544;8.646;2022-10-31T07:05:26;7.43;;;4.70;;
55684;SDS011;41883;49.544;8.646;2022-10-31T07:07:52;9.07;;;4.72;;
55684;SDS011;41883;49.544;8.646;2022-10-31T07:10:17;6.40;;;3.65;;
55684;SDS011;41883;49.544;8.646;2022-10-31T07:12:42;10.97;;;4.30;;
55684;SDS011;41883;49.544;8.646;2022-10-31T07:15:07;8.17;;;4.53;;
55684;SDS011;41883;49.544;8.646;2022-10-31T07:17:33;8.85;;;4.55;;
55684;SDS011;41883;49.544;8.646;2022-10-31T07:19:58;6.97;;;4.13;;
55684;SDS011;41883;49.544;8.646;2022-10-31T07:22:23;9.57;;;4.10;;
55684;SDS011;41883;49.544;8.646;2022-10-31T07:24:48;10.67;;;4.70;;
55684;SDS011;41883;49.544;8.646;2022-10-31T07:27:13;9.57;;;5.10;;
55684;SDS011;41883;49.544;8.646;2022-10-31T07:29:38;6.63;;;4.80;;
55684;SDS011;41883;49.544;8.646;2022-10-31T07:32:04;8.97;;;4.40;;
55684;SDS011;41883;49.544;8.646;2022-10-31T07:34:29;8.83;;;4.80;;
55684;SDS011;41883;49.544;8.646;2022-10-31T07:36:54;10.07;;;5.20;;
55684;SDS011;41883;49.544;8.646;2022-10-31T07:39:19;5.47;;;4.13;;
55684;SDS011;41883;49.544;8.646;2022-10-31T07:41:44;8.03;;;4.83;;
55684;SDS011;41883;49.544;8.646;2022-10-31T07:44:09;8.47;;;4.47;;
55684;SDS011;41883;49.544;8.646;2022-10-31T07:46:35;5.37;;;4.10;;
55684;SDS011;41883;49.544;8.646;2022-10-31T07:49:00;11.07;;;5.43;;
55684;SDS011;41883;49.544;8.646;2022-10-31T07:51:25;9.50;;;5.17;;
55684;SDS011;41883;49.544;8.646;2022-10-31T07:53:51;7.47;;;4.45;;
55684;SDS011;41883;49.544;8.646;2022-10-31T07:56:16;11.80;;;5.10;;
55684;SDS011;41883;49.544;8.646;2022-10-31T07:58:41;6.93;;;4.37;;
55684;SDS011;41883;49.544;8.646;2022-10-31T08:01:06;8.37;;;4.20;;
55684;SDS011;41883;49.544;8.646;2022-10-31T08:03:32;6.07;;;3.83;;
55684;SDS011;41883;49.544;8.646;2022-10-31T08:05:57;7.77;;;3.73;;
55684;SDS011;41883;49.544;8.646;2022-10-31T08:08:22;10.38;;;4.05;;
55684;SDS011;41883;49.544;8.646;2022-10-31T08:10:49;7.50;;;4.28;;
55684;SDS011;41883;49.544;8.646;2022-10-31T08:13:14;13.77;;;4.88;;
55684;SDS011;41883;49.544;8.646;2022-10-31T08:15:39;9.45;;;4.63;;
55684;SDS011;41883;49.544;8.646;2022-10-31T08:18:10;9.07;;;4.45;;
55684;SDS011;41883;49.544;8.646;2022-10-31T08:20:37;5.82;;;3.30;;
55684;SDS011;41883;49.544;8.646;2022-10-31T08:23:04;5.72;;;3.50;;
55684;SDS011;41883;49.544;8.646;2022-10-31T08:25:30;7.82;;;3.30;;
55684;SDS011;41883;49.544;8.646;2022-10-31T08:27:57;6.72;;;3.60;;
55684;SDS011;41883;49.544;8.646;2022-10-31T08:30:24;7.18;;;4.03;;
55684;SDS011;41883;49.544;8.646;2022-10-31T08:33:10;6.15;;;3.80;;
55684;SDS011;41883;49.544;8.646;2022-10-31T08:35:36;7.75;;;3.42;;
55684;SDS011;41883;49.544;8.646;2022-10-31T08:38:02;6.45;;;3.60;;
55684;SDS011;41883;49.544;8.646;2022-10-31T08:40:27;8.55;;;3.85;;
55684;SDS011;41883;49.544;8.646;2022-10-31T08:47:48;8.63;;;4.40;;
55684;SDS011;41883;49.544;8.646;2022-10-31T08:50:14;6.75;;;3.90;;
55684;SDS011;41883;49.544;8.646;2022-10-31T08:52:39;6.72;;;3.92;;
55684;SDS011;41883;49.544;8.646;2022-10-31T08:55:04;7.70;;;3.97;;
55684;SDS011;41883;49.544;8.646;2022-10-31T08:57:30;7.70;;;4.00;;
55684;SDS011;41883;49.544;8.646;2022-10-31T08:59:55;4.93;;;3.27;;
55684;SDS011;41883;49.544;8.646;2022-10-31T09:02:21;6.10;;;3.55;;
55684;SDS011;41883;49.544;8.646;2022-10-31T09:09:36;6.77;;;3.80;;
55684;SDS011;41883;49.544;8.646;2022-10-31T09:12:01;6.20;;;3.30;;
55684;SDS011;41883;49.544;8.646;2022-10-31T09:16:52;8.30;;;3.60;;
55684;SDS011;41883;49.544;8.646;2022-10-31T09:19:17;4.90;;;3.60;;
55684;SDS011;41883;49.544;8.646;2022-10-31T09:21:43;6.13;;;3.97;;
55684;SDS011;41883;49.544;8.646;2022-10-31T09:24:08;8.10;;;4.25;;
55684;SDS011;41883;49.544;8.646;2022-10-31T09:26:33;5.65;;;3.28;;
55684;SDS011;41883;49.544;8.646;2022-10-31T09:28:58;7.10;;;3.30;;
55684;SDS011;41883;49.544;8.646;2022-10-31T09:31:26;6.53;;;3.35;;
55684;SDS011;41883;49.544;8.646;2022-10-31T09:33:52;8.60;;;4.07;;
55684;SDS011;41883;49.544;8.646;2022-10-31T09:36:18;7.85;;;3.90;;
55684;SDS011;41883;49.544;8.646;2022-10-31T09:38:43;7.00;;;4.27;;
55684;SDS011;41883;49.544;8.646;2022-10-31T09:49:53;7.60;;;4.20;;
55684;SDS011;41883;49.544;8.646;2022-10-31T09:52:44;8.27;;;4.22;;
55684;SDS011;41883;49.544;8.646;2022-10-31T09:55:41;10.88;;;4.68;;
55684;SDS011;41883;49.544;8.646;2022-10-31T09:58:15;8.85;;;3.92;;
55684;SDS011;41883;49.544;8.646;2022-10-31T10:00:43;6.13;;;3.20;;
55684;SDS011;41883;49.544;8.646;2022-10-31T10:03:22;7.38;;;4.35;;
55684;SDS011;41883;49.544;8.646;2022-10-31T10:06:11;7.20;;;3.65;;
55684;SDS011;41883;49.544;8.646;2022-10-31T10:08:42;7.38;;;4.32;;
55684;SDS011;41883;49.544;8.646;2022-10-31T10:19:13;9.88;;;4.95;;
55684;SDS011;41883;49.544;8.646;2022-10-31T10:32:28;6.72;;;4.50;;
55684;SDS011;41883;49.544;8.646;2022-10-31T10:35:04;6.32;;;4.10;;
55684;SDS011;41883;49.544;8.646;2022-10-31T10:37:42;3.88;;;3.20;;
55684;SDS011;41883;49.544;8.646;2022-10-31T10:40:13;6.57;;;4.20;;
55684;SDS011;41883;49.544;8.646;2022-10-31T10:42:44;6.95;;;4.40;;
55684;SDS011;41883;49.544;8.646;2022-10-31T10:45:50;7.60;;;4.10;;
55684;SDS011;41883;49.544;8.646;2022-10-31T10:59:26;6.07;;;3.50;;
55684;SDS011;41883;49.544;8.646;2022-10-31T11:01:52;7.47;;;3.95;;
55684;SDS011;41883;49.544;8.646;2022-10-31T11:04:31;8.75;;;4.75;;
55684;SDS011;41883;49.544;8.646;2022-10-31T11:07:07;9.73;;;5.35;;
55684;SDS011;41883;49.544;8.646;2022-10-31T11:09:34;6.07;;;4.20;;
55684;SDS011;41883;49.544;8.646;2022-10-31T11:12:05;8.27;;;4.93;;
55684;SDS011;41883;49.544;8.646;2022-10-31T11:14:44;8.27;;;5.20;;
55684;SDS011;41883;49.544;8.646;2022-10-31T11:17:29;8.15;;;4.55;;
55684;SDS011;41883;49.544;8.646;2022-10-31T11:20:00;6.53;;;4.43;;
55684;SDS011;41883;49.544;8.646;2022-10-31T11:22:28;6.90;;;4.38;;
55684;SDS011;41883;49.544;8.646;2022-10-31T11:24:54;8.05;;;5.38;;
55684;SDS011;41883;49.544;8.646;2022-10-31T11:27:20;5.75;;;4.20;;
55684;SDS011;41883;49.544;8.646;2022-10-31T11:29:48;6.38;;;4.43;;
55684;SDS011;41883;49.544;8.646;2022-10-31T11:32:23;7.75;;;5.20;;
55684;SDS011;41883;49.544;8.646;2022-10-31T11:34:52;7.70;;;5.28;;
55684;SDS011;41883;49.544;8.646;2022-10-31T11:37:23;8.20;;;5.65;;
55684;SDS011;41883;49.544;8.646;2022-10-31T11:40:02;6.72;;;4.65;;
55684;SDS011;41883;49.544;8.646;2022-10-31T11:42:39;9.25;;;5.43;;
55684;SDS011;41883;49.544;8.646;2022-10-31T11:45:15;7.55;;;5.10;;
55684;SDS011;41883;49.544;8.646;2022-10-31T11:47:59;8.65;;;5.32;;
55684;SDS011;41883;49.544;8.646;2022-10-31T11:53:03;8.60;;;5.47;;
55684;SDS011;41883;49.544;8.646;2022-10-31T11:55:37;10.00;;;5.93;;
55684;SDS011;41883;49.544;8.646;2022-10-31T11:58:04;7.43;;;5.03;;
55684;SDS011;41883;49.544;8.646;2022-10-31T12:00:48;10.52;;;6.00;;
55684;SDS011;41883;49.544;8.646;2022-10-31T12:03:20;12.85;;;6.72;;
55684;SDS011;41883;49.544;8.646;2022-10-31T12:05:54;10.88;;;6.57;;
55684;SDS011;41883;49.544;8.646;2022-10-31T12:08:23;8.35;;;4.88;;
55684;SDS011;41883;49.544;8.646;2022-10-31T12:14:09;6.63;;;4.95;;
55684;SDS011;41883;49.544;8.646;2022-10-31T12:16:19;5.55;;;4.20;;
55684;SDS011;41883;49.544;8.646;2022-10-31T12:18:59;8.05;;;4.97;;
55684;SDS011;41883;49.544;8.646;2022-10-31T12:21:34;7.57;;;4.93;;
55684;SDS011;41883;49.544;8.646;2022-10-31T12:24:31;6.25;;;4.78;;
55684;SDS011;41883;49.544;8.646;2022-10-31T12:27:15;7.60;;;5.05;;
55684;SDS011;41883;49.544;8.646;2022-10-31T12:32:34;8.38;;;5.05;;
55684;SDS011;41883;49.544;8.646;2022-10-31T12:40:36;6.35;;;3.75;;
55684;SDS011;41883;49.544;8.646;2022-10-31T12:43:23;6.57;;;4.35;;
55684;SDS011;41883;49.544;8.646;2022-10-31T12:47:20;9.13;;;5.45;;
55684;SDS011;41883;49.544;8.646;2022-10-31T12:55:03;5.93;;;4.10;;
55684;SDS011;41883;49.544;8.646;2022-10-31T13:00:16;9.68;;;5.93;;
55684;SDS011;41883;49.544;8.646;2022-10-31T13:10:33;10.00;;;5.95;;
55684;SDS011;41883;49.544;8.646;2022-10-31T13:15:49;8.35;;;5.30;;
55684;SDS011;41883;49.544;8.646;2022-10-31T13:18:27;12.98;;;8.10;;
55684;SDS011;41883;49.544;8.646;2022-10-31T13:23:38;8.90;;;5.28;;
55684;SDS011;41883;49.544;8.646;2022-10-31T13:26:48;11.23;;;7.28;;
55684;SDS011;41883;49.544;8.646;2022-10-31T13:29:24;8.77;;;5.72;;
55684;SDS011;41883;49.544;8.646;2022-10-31T13:31:53;7.57;;;5.93;;
55684;SDS011;41883;49.544;8.646;2022-10-31T13:34:38;8.27;;;5.60;;
55684;SDS011;41883;49.544;8.646;2022-10-31T13:37:10;9.95;;;7.20;;
55684;SDS011;41883;49.544;8.646;2022-10-31T13:40:02;8.00;;;5.50;;
55684;SDS011;41883;49.544;8.646;2022-10-31T13:45:27;9.50;;;6.40;;
55684;SDS011;41883;49.544;8.646;2022-10-31T13:47:57;9.88;;;6.90;;
55684;SDS011;41883;49.544;8.646;2022-10-31T13:50:41;9.07;;;6.50;;
55684;SDS011;41883;49.544;8.646;2022-10-31T13:56:02;8.70;;;5.30;;
55684;SDS011;41883;49.544;8.646;2022-10-31T13:58:35;13.43;;;7.97;;
55684;SDS011;41883;49.544;8.646;2022-10-31T14:06:00;9.02;;;5.55;;
55684;SDS011;41883;49.544;8.646;2022-10-31T14:08:26;6.30;;;4.82;;
55684;SDS011;41883;49.544;8.646;2022-10-31T14:10:54;10.00;;;6.28;;
55684;SDS011;41883;49.544;8.646;2022-10-31T14:13:26;7.88;;;5.70;;
55684;SDS011;41883;49.544;8.646;2022-10-31T14:16:27;7.85;;;5.95;;
55684;SDS011;41883;49.544;8.646;2022-10-31T14:19:00;7.75;;;5.20;;
55684;SDS011;41883;49.544;8.646;2022-10-31T14:21:35;8.77;;;4.85;;
55684;SDS011;41883;49.544;8.646;2022-10-31T14:24:12;9.90;;;5.90;;
55684;SDS011;41883;49.544;8.646;2022-10-31T14:26:58;7.20;;;5.40;;
55684;SDS011;41883;49.544;8.646;2022-10-31T14:29:32;8.65;;;5.60;;
55684;SDS011;41883;49.544;8.646;2022-10-31T14:32:01;7.72;;;6.03;;
55684;SDS011;41883;49.544;8.646;2022-10-31T14:34:36;9.88;;;6.07;;
55684;SDS011;41883;49.544;8.646;2022-10-31T14:40:22;7.53;;;5.32;;
55684;SDS011;41883;49.544;8.646;2022-10-31T14:48:33;7.20;;;4.07;;
55684;SDS011;41883;49.544;8.646;2022-10-31T14:51:02;6.22;;;4.25;;
55684;SDS011;41883;49.544;8.646;2022-10-31T14:53:35;5.00;;;3.80;;
55684;SDS011;41883;49.544;8.646;2022-10-31T14:56:09;5.95;;;3.72;;
55684;SDS011;41883;49.544;8.646;2022-10-31T14:58:45;7.72;;;4.40;;
55684;SDS011;41883;49.544;8.646;2022-10-31T15:01:28;6.05;;;4.50;;
55684;SDS011;41883;49.544;8.646;2022-10-31T15:06:42;8.25;;;5.78;;
55684;SDS011;41883;49.544;8.646;2022-10-31T15:09:21;10.48;;;7.28;;
55684;SDS011;41883;49.544;8.646;2022-10-31T15:11:54;11.48;;;7.32;;
55684;SDS011;41883;49.544;8.646;2022-10-31T15:14:21;9.23;;;6.95;;
55684;SDS011;41883;49.544;8.646;2022-10-31T15:16:49;10.07;;;7.22;;
55684;SDS011;41883;49.544;8.646;2022-10-31T15:19:16;13.23;;;7.63;;
55684;SDS011;41883;49.544;8.646;2022-10-31T15:21:46;11.15;;;7.00;;
55684;SDS011;41883;49.544;8.646;2022-10-31T15:24:13;8.18;;;5.88;;
55684;SDS011;41883;49.544;8.646;2022-10-31T15:26:43;7.70;;;5.55;;
55684;SDS011;41883;49.544;8.646;2022-10-31T15:29:12;7.53;;;4.80;;
55684;SDS011;41883;49.544;8.646;2022-10-31T15:34:43;7.18;;;5.13;;
55684;SDS011;41883;49.544;8.646;2022-10-31T15:39:38;6.90;;;4.97;;
55684;SDS011;41883;49.544;8.646;2022-10-31T15:42:04;6.97;;;5.15;;
55684;SDS011;41883;49.544;8.646;2022-10-31T15:44:30;12.73;;;8.88;;
55684;SDS011;41883;49.544;8.646;2022-10-31T15:47:19;11.15;;;7.20;;
55684;SDS011;41883;49.544;8.646;2022-10-31T15:49:49;9.93;;;6.25;;
55684;SDS011;41883;49.544;8.646;2022-10-31T15:52:20;10.85;;;7.20;;
55684;SDS011;41883;49.544;8.646;2022-10-31T15:54:54;11.35;;;7.80;;
55684;SDS011;41883;49.544;8.646;2022-10-31T15:57:24;11.00;;;6.85;;
55684;SDS011;41883;49.544;8.646;2022-10-31T15:59:51;10.35;;;6.40;;
55684;SDS011;41883;49.544;8.646;2022-10-31T16:02:19;10.88;;;7.90;;
55684;SDS011;41883;49.544;8.646;2022-10-31T16:04:48;15.38;;;9.23;;
55684;SDS011;41883;49.544;8.646;2022-10-31T16:07:17;11.18;;;7.38;;
55684;SDS011;41883;49.544;8.646;2022-10-31T16:09:57;13.77;;;7.63;;
55684;SDS011;41883;49.544;8.646;2022-10-31T16:12:23;16.30;;;8.98;;
55684;SDS011;41883;49.544;8.646;2022-10-31T16:14:54;12.13;;;7.75;;
55684;SDS011;41883;49.544;8.646;2022-10-31T16:17:20;15.57;;;8.48;;
55684;SDS011;41883;49.544;8.646;2022-10-31T16:19:51;14.50;;;9.63;;
55684;SDS011;41883;49.544;8.646;2022-10-31T16:22:24;18.92;;;10.15;;
55684;SDS011;41883;49.544;8.646;2022-10-31T16:25:11;15.88;;;9.48;;
55684;SDS011;41883;49.544;8.646;2022-10-31T16:27:39;15.50;;;9.88;;
55684;SDS011;41883;49.544;8.646;2022-10-31T16:30:28;13.05;;;8.23;;
55684;SDS011;41883;49.544;8.646;2022-10-31T16:33:10;12.95;;;7.85;;
55684;SDS011;41883;49.544;8.646;2022-10-31T16:35:44;12.90;;;8.52;;
55684;SDS011;41883;49.544;8.646;2022-10-31T16:38:10;12.90;;;8.85;;
55684;SDS011;41883;49.544;8.646;2022-10-31T16:40:37;13.32;;;9.38;;
55684;SDS011;41883;49.544;8.646;2022-10-31T16:43:03;12.25;;;8.40;;
55684;SDS011;41883;49.544;8.646;2022-10-31T16:45:31;13.90;;;8.70;;
55684;SDS011;41883;49.544;8.646;2022-10-31T16:48:01;14.35;;;8.88;;
55684;SDS011;41883;49.544;8.646;2022-10-31T16:50:30;12.32;;;8.88;;
55684;SDS011;41883;49.544;8.646;2022-10-31T16:52:55;10.90;;;8.00;;
55684;SDS011;41883;49.544;8.646;2022-10-31T16:55:20;12.02;;;9.48;;
55684;SDS011;41883;49.544;8.646;2022-10-31T16:57:47;12.60;;;8.27;;
55684;SDS011;41883;49.544;8.646;2022-10-31T17:00:24;11.63;;;7.45;;
55684;SDS011;41883;49.544;8.646;2022-10-31T17:02:52;11.23;;;6.20;;
55684;SDS011;41883;49.544;8.646;2022-10-31T17:05:19;8.00;;;5.15;;
55684;SDS011;41883;49.544;8.646;2022-10-31T17:07:45;10.40;;;7.13;;
55684;SDS011;41883;49.544;8.646;2022-10-31T17:10:12;12.85;;;9.25;;
55684;SDS011;41883;49.544;8.646;2022-10-31T17:12:39;12.65;;;8.25;;
55684;SDS011;41883;49.544;8.646;2022-10-31T17:15:10;10.77;;;7.10;;
55684;SDS011;41883;49.544;8.646;2022-10-31T17:17:49;9.10;;;6.50;;
55684;SDS011;41883;49.544;8.646;2022-10-31T17:20:19;10.23;;;7.40;;
55684;SDS011;41883;49.544;8.646;2022-10-31T17:22:49;13.05;;;7.05;;
55684;SDS011;41883;49.544;8.646;2022-10-31T17:25:16;10.85;;;7.97;;
55684;SDS011;41883;49.544;8.646;2022-10-31T17:27:43;9.20;;;6.72;;
55684;SDS011;41883;49.544;8.646;2022-10-31T17:30:10;10.20;;;6.80;;
55684;SDS011;41883;49.544;8.646;2022-10-31T17:32:37;7.45;;;5.45;;
55684;SDS011;41883;49.544;8.646;2022-10-31T17:35:02;10.30;;;6.93;;
55684;SDS011;41883;49.544;8.646;2022-10-31T17:37:28;13.57;;;8.15;;
55684;SDS011;41883;49.544;8.646;2022-10-31T17:39:53;10.33;;;6.73;;
55684;SDS011;41883;49.544;8.646;2022-10-31T17:42:18;10.67;;;6.80;;
55684;SDS011;41883;49.544;8.646;2022-10-31T17:44:43;10.52;;;6.50;;
55684;SDS011;41883;49.544;8.646;2022-10-31T17:47:09;11.30;;;6.60;;
55684;SDS011;41883;49.544;8.646;2022-10-31T17:49:34;12.27;;;5.53;;
55684;SDS011;41883;49.544;8.646;2022-10-31T17:51:59;19.15;;;10.27;;
55684;SDS011;41883;49.544;8.646;2022-10-31T17:54:24;14.88;;;9.02;;
55684;SDS011;41883;49.544;8.646;2022-10-31T17:56:51;12.32;;;7.38;;
55684;SDS011;41883;49.544;8.646;2022-10-31T17:59:17;8.70;;;6.13;;
55684;SDS011;41883;49.544;8.646;2022-10-31T18:01:42;8.18;;;5.65;;
55684;SDS011;41883;49.544;8.646;2022-10-31T18:04:08;11.47;;;6.57;;
55684;SDS011;41883;49.544;8.646;2022-10-31T18:06:33;13.68;;;7.47;;